sensor_id;sensor_type;location;lat;lon;timestamp;P1;durP1;ratioP1;P2;durP2;ratioP2
40471;SDS011;26174;42.908;23.800;2024-02-14T00:01:53;0.93;;;0.93;;
40471;SDS011;26174;42.908;23.800;2024-02-14T00:04:20;0.70;;;0.70;;
40471;SDS011;26174;42.908;23.800;2024-02-14T00:06:46;0.80;;;0.80;;
40471;SDS011;26174;42.908;23.800;2024-02-14T00:09:13;0.90;;;0.90;;
40471;SDS011;26174;42.908;23.800;2024-02-14T00:11:39;1.25;;;0.32;;
40471;SDS011;26174;42.908;23.800;2024-02-14T00:14:04;0.38;;;0.38;;
40471;SDS011;26174;42.908;23.800;2024-02-14T00:16:32;0.00;;;0.00;;
40471;SDS011;26174;42.908;23.800;2024-02-14T00:18:57;0.10;;;0.10;;
40471;SDS011;26174;42.908;23.800;2024-02-14T00:21:23;0.13;;;0.13;;
40471;SDS011;26174;42.908;23.800;2024-02-14T00:23:49;0.30;;;0.30;;
40471;SDS011;26174;42.908;23.800;2024-02-14T00:26:15;0.17;;;0.17;;
40471;SDS011;26174;42.908;23.800;2024-02-14T00:28:41;0.17;;;0.17;;
40471;SDS011;26174;42.908;23.800;2024-02-14T00:31:07;1.45;;;0.40;;
40471;SDS011;26174;42.908;23.800;2024-02-14T00:33:32;0.10;;;0.10;;
40471;SDS011;26174;42.908;23.800;2024-02-14T00:35:58;0.45;;;0.40;;
40471;SDS011;26174;42.908;23.800;2024-02-14T00:38:24;0.20;;;0.20;;
40471;SDS011;26174;42.908;23.800;2024-02-14T00:40:49;0.20;;;0.20;;
40471;SDS011;26174;42.908;23.800;2024-02-14T00:43:15;0.20;;;0.20;;
40471;SDS011;26174;42.908;23.800;2024-02-14T00:45:40;0.25;;;0.25;;
40471;SDS011;26174;42.908;23.800;2024-02-14T00:48:06;0.70;;;0.70;;
40471;SDS011;26174;42.908;23.800;2024-02-14T00:50:32;0.00;;;0.00;;
40471;SDS011;26174;42.908;23.800;2024-02-14T00:52:58;0.28;;;0.28;;
40471;SDS011;26174;42.908;23.800;2024-02-14T00:55:24;2.25;;;0.20;;
40471;SDS011;26174;42.908;23.800;2024-02-14T00:57:50;0.10;;;0.10;;
40471;SDS011;26174;42.908;23.800;2024-02-14T01:00:16;0.32;;;0.28;;
40471;SDS011;26174;42.908;23.800;2024-02-14T01:02:42;0.28;;;0.28;;
40471;SDS011;26174;42.908;23.800;2024-02-14T01:05:08;0.10;;;0.10;;
40471;SDS011;26174;42.908;23.800;2024-02-14T01:07:34;3.08;;;0.73;;
40471;SDS011;26174;42.908;23.800;2024-02-14T01:10:00;5.68;;;0.43;;
40471;SDS011;26174;42.908;23.800;2024-02-14T01:12:26;1.65;;;0.63;;
40471;SDS011;26174;42.908;23.800;2024-02-14T01:14:52;0.22;;;0.22;;
40471;SDS011;26174;42.908;23.800;2024-02-14T01:17:17;0.20;;;0.20;;
40471;SDS011;26174;42.908;23.800;2024-02-14T01:19:43;0.10;;;0.10;;
40471;SDS011;26174;42.908;23.800;2024-02-14T01:22:09;0.20;;;0.20;;
40471;SDS011;26174;42.908;23.800;2024-02-14T01:24:34;0.10;;;0.10;;
40471;SDS011;26174;42.908;23.800;2024-02-14T01:27:00;0.30;;;0.30;;
40471;SDS011;26174;42.908;23.800;2024-02-14T01:29:26;0.10;;;0.10;;
40471;SDS011;26174;42.908;23.800;2024-02-14T01:31:52;0.10;;;0.10;;
40471;SDS011;26174;42.908;23.800;2024-02-14T01:34:17;0.20;;;0.20;;
40471;SDS011;26174;42.908;23.800;2024-02-14T01:36:43;0.52;;;0.50;;
40471;SDS011;26174;42.908;23.800;2024-02-14T01:39:09;0.35;;;0.30;;
40471;SDS011;26174;42.908;23.800;2024-02-14T01:41:44;1.27;;;1.17;;
40471;SDS011;26174;42.908;23.800;2024-02-14T01:44:11;0.17;;;0.17;;
40471;SDS011;26174;42.908;23.800;2024-02-14T01:46:37;0.43;;;0.43;;
40471;SDS011;26174;42.908;23.800;2024-02-14T01:49:03;2.85;;;0.60;;
40471;SDS011;26174;42.908;23.800;2024-02-14T01:51:29;0.50;;;0.50;;
40471;SDS011;26174;42.908;23.800;2024-02-14T01:53:55;2.08;;;1.50;;
40471;SDS011;26174;42.908;23.800;2024-02-14T01:56:21;2.70;;;1.17;;
40471;SDS011;26174;42.908;23.800;2024-02-14T01:58:47;0.80;;;0.68;;
40471;SDS011;26174;42.908;23.800;2024-02-14T02:01:12;0.88;;;0.88;;
40471;SDS011;26174;42.908;23.800;2024-02-14T02:03:38;0.45;;;0.45;;
40471;SDS011;26174;42.908;23.800;2024-02-14T02:06:05;0.50;;;0.50;;
40471;SDS011;26174;42.908;23.800;2024-02-14T02:08:31;0.28;;;0.28;;
40471;SDS011;26174;42.908;23.800;2024-02-14T02:10:57;0.15;;;0.15;;
40471;SDS011;26174;42.908;23.800;2024-02-14T02:13:23;1.23;;;1.13;;
40471;SDS011;26174;42.908;23.800;2024-02-14T02:15:51;1.20;;;0.70;;
40471;SDS011;26174;42.908;23.800;2024-02-14T02:18:18;0.20;;;0.20;;
40471;SDS011;26174;42.908;23.800;2024-02-14T02:20:44;0.30;;;0.30;;
40471;SDS011;26174;42.908;23.800;2024-02-14T02:23:11;0.20;;;0.20;;
40471;SDS011;26174;42.908;23.800;2024-02-14T02:25:40;1.35;;;0.75;;
40471;SDS011;26174;42.908;23.800;2024-02-14T02:28:09;0.20;;;0.20;;
40471;SDS011;26174;42.908;23.800;2024-02-14T02:30:35;1.23;;;0.88;;
40471;SDS011;26174;42.908;23.800;2024-02-14T02:33:02;0.20;;;0.20;;
40471;SDS011;26174;42.908;23.800;2024-02-14T02:35:28;0.38;;;0.38;;
40471;SDS011;26174;42.908;23.800;2024-02-14T02:37:53;0.55;;;0.55;;
40471;SDS011;26174;42.908;23.800;2024-02-14T02:40:19;1.80;;;1.42;;
40471;SDS011;26174;42.908;23.800;2024-02-14T02:42:46;0.77;;;0.50;;
40471;SDS011;26174;42.908;23.800;2024-02-14T02:45:12;0.35;;;0.35;;
40471;SDS011;26174;42.908;23.800;2024-02-14T02:47:38;5.78;;;1.75;;
40471;SDS011;26174;42.908;23.800;2024-02-14T02:50:05;0.15;;;0.15;;
40471;SDS011;26174;42.908;23.800;2024-02-14T02:52:31;0.50;;;0.38;;
40471;SDS011;26174;42.908;23.800;2024-02-14T02:54:57;0.10;;;0.10;;
40471;SDS011;26174;42.908;23.800;2024-02-14T02:57:22;0.38;;;0.22;;
40471;SDS011;26174;42.908;23.800;2024-02-14T02:59:48;0.40;;;0.40;;
40471;SDS011;26174;42.908;23.800;2024-02-14T03:02:14;0.17;;;0.17;;
40471;SDS011;26174;42.908;23.800;2024-02-14T03:04:40;0.10;;;0.10;;
40471;SDS011;26174;42.908;23.800;2024-02-14T03:07:07;0.30;;;0.30;;
40471;SDS011;26174;42.908;23.800;2024-02-14T03:09:34;1.23;;;1.13;;
40471;SDS011;26174;42.908;23.800;2024-02-14T03:12:01;5.78;;;1.17;;
40471;SDS011;26174;42.908;23.800;2024-02-14T03:14:31;0.90;;;0.77;;
40471;SDS011;26174;42.908;23.800;2024-02-14T03:17:00;1.13;;;0.50;;
40471;SDS011;26174;42.908;23.800;2024-02-14T03:19:27;0.25;;;0.25;;
40471;SDS011;26174;42.908;23.800;2024-02-14T03:21:53;0.50;;;0.50;;
40471;SDS011;26174;42.908;23.800;2024-02-14T03:24:24;0.50;;;0.50;;
40471;SDS011;26174;42.908;23.800;2024-02-14T03:26:52;1.23;;;0.65;;
40471;SDS011;26174;42.908;23.800;2024-02-14T03:29:19;0.20;;;0.20;;
40471;SDS011;26174;42.908;23.800;2024-02-14T03:31:46;1.05;;;1.00;;
40471;SDS011;26174;42.908;23.800;2024-02-14T03:34:12;0.73;;;0.50;;
40471;SDS011;26174;42.908;23.800;2024-02-14T03:36:37;1.58;;;0.95;;
40471;SDS011;26174;42.908;23.800;2024-02-14T03:39:04;1.35;;;0.55;;
40471;SDS011;26174;42.908;23.800;2024-02-14T03:41:30;3.55;;;0.70;;
40471;SDS011;26174;42.908;23.800;2024-02-14T03:43:56;1.55;;;1.38;;
40471;SDS011;26174;42.908;23.800;2024-02-14T03:46:28;1.48;;;1.38;;
40471;SDS011;26174;42.908;23.800;2024-02-14T03:48:55;1.80;;;1.23;;
40471;SDS011;26174;42.908;23.800;2024-02-14T03:51:22;1.90;;;1.67;;
40471;SDS011;26174;42.908;23.800;2024-02-14T03:53:48;1.45;;;1.33;;
40471;SDS011;26174;42.908;23.800;2024-02-14T03:56:14;1.90;;;1.50;;
40471;SDS011;26174;42.908;23.800;2024-02-14T03:58:41;0.95;;;0.82;;
40471;SDS011;26174;42.908;23.800;2024-02-14T04:01:07;3.60;;;2.28;;
40471;SDS011;26174;42.908;23.800;2024-02-14T04:03:33;1.20;;;1.13;;
40471;SDS011;26174;42.908;23.800;2024-02-14T04:06:00;6.15;;;0.93;;
40471;SDS011;26174;42.908;23.800;2024-02-14T04:08:26;1.38;;;1.27;;
40471;SDS011;26174;42.908;23.800;2024-02-14T04:10:51;11.77;;;2.70;;
40471;SDS011;26174;42.908;23.800;2024-02-14T04:13:20;0.90;;;0.90;;
40471;SDS011;26174;42.908;23.800;2024-02-14T04:15:46;3.25;;;1.77;;
40471;SDS011;26174;42.908;23.800;2024-02-14T04:18:12;0.43;;;0.40;;
40471;SDS011;26174;42.908;23.800;2024-02-14T04:20:39;1.02;;;0.98;;
40471;SDS011;26174;42.908;23.800;2024-02-14T04:23:06;0.60;;;0.60;;
40471;SDS011;26174;42.908;23.800;2024-02-14T04:25:32;2.03;;;1.85;;
40471;SDS011;26174;42.908;23.800;2024-02-14T04:27:59;1.20;;;1.10;;
40471;SDS011;26174;42.908;23.800;2024-02-14T04:30:26;1.42;;;1.33;;
40471;SDS011;26174;42.908;23.800;2024-02-14T04:32:52;0.63;;;0.63;;
40471;SDS011;26174;42.908;23.800;2024-02-14T04:35:19;0.20;;;0.20;;
40471;SDS011;26174;42.908;23.800;2024-02-14T04:37:45;5.00;;;2.17;;
40471;SDS011;26174;42.908;23.800;2024-02-14T04:40:14;2.83;;;1.05;;
40471;SDS011;26174;42.908;23.800;2024-02-14T04:42:40;1.83;;;1.48;;
40471;SDS011;26174;42.908;23.800;2024-02-14T04:45:06;1.77;;;1.48;;
40471;SDS011;26174;42.908;23.800;2024-02-14T04:47:33;1.50;;;1.25;;
40471;SDS011;26174;42.908;23.800;2024-02-14T04:49:59;0.82;;;0.75;;
40471;SDS011;26174;42.908;23.800;2024-02-14T04:52:26;3.85;;;1.13;;
40471;SDS011;26174;42.908;23.800;2024-02-14T04:54:52;0.32;;;0.32;;
40471;SDS011;26174;42.908;23.800;2024-02-14T04:57:17;0.20;;;0.20;;
40471;SDS011;26174;42.908;23.800;2024-02-14T04:59:45;0.98;;;0.82;;
40471;SDS011;26174;42.908;23.800;2024-02-14T05:02:10;0.10;;;0.10;;
40471;SDS011;26174;42.908;23.800;2024-02-14T05:04:36;1.02;;;0.52;;
40471;SDS011;26174;42.908;23.800;2024-02-14T05:07:04;0.95;;;0.40;;
40471;SDS011;26174;42.908;23.800;2024-02-14T05:09:30;0.77;;;0.65;;
40471;SDS011;26174;42.908;23.800;2024-02-14T05:11:55;3.20;;;1.33;;
40471;SDS011;26174;42.908;23.800;2024-02-14T05:14:21;1.52;;;1.33;;
40471;SDS011;26174;42.908;23.800;2024-02-14T05:16:47;24.98;;;2.47;;
40471;SDS011;26174;42.908;23.800;2024-02-14T05:19:12;7.00;;;4.18;;
40471;SDS011;26174;42.908;23.800;2024-02-14T05:21:38;4.63;;;2.63;;
40471;SDS011;26174;42.908;23.800;2024-02-14T05:24:04;0.90;;;0.85;;
40471;SDS011;26174;42.908;23.800;2024-02-14T05:26:31;0.25;;;0.22;;
40471;SDS011;26174;42.908;23.800;2024-02-14T05:28:57;2.25;;;0.93;;
40471;SDS011;26174;42.908;23.800;2024-02-14T05:31:24;1.08;;;0.95;;
40471;SDS011;26174;42.908;23.800;2024-02-14T05:33:51;0.35;;;0.35;;
40471;SDS011;26174;42.908;23.800;2024-02-14T05:36:16;0.40;;;0.40;;
40471;SDS011;26174;42.908;23.800;2024-02-14T05:38:42;0.88;;;0.82;;
40471;SDS011;26174;42.908;23.800;2024-02-14T05:41:08;0.68;;;0.50;;
40471;SDS011;26174;42.908;23.800;2024-02-14T05:43:35;0.47;;;0.47;;
40471;SDS011;26174;42.908;23.800;2024-02-14T05:46:01;0.30;;;0.30;;
40471;SDS011;26174;42.908;23.800;2024-02-14T05:48:26;1.15;;;1.05;;
40471;SDS011;26174;42.908;23.800;2024-02-14T05:50:52;1.25;;;1.17;;
40471;SDS011;26174;42.908;23.800;2024-02-14T05:53:19;1.42;;;0.90;;
40471;SDS011;26174;42.908;23.800;2024-02-14T05:55:45;1.23;;;1.02;;
40471;SDS011;26174;42.908;23.800;2024-02-14T05:58:10;0.28;;;0.28;;
40471;SDS011;26174;42.908;23.800;2024-02-14T06:00:36;1.80;;;1.10;;
40471;SDS011;26174;42.908;23.800;2024-02-14T06:03:02;0.80;;;0.80;;
40471;SDS011;26174;42.908;23.800;2024-02-14T06:05:30;3.33;;;1.45;;
40471;SDS011;26174;42.908;23.800;2024-02-14T06:07:56;0.98;;;0.93;;
40471;SDS011;26174;42.908;23.800;2024-02-14T06:10:21;1.80;;;0.55;;
40471;SDS011;26174;42.908;23.800;2024-02-14T06:12:47;5.30;;;1.63;;
40471;SDS011;26174;42.908;23.800;2024-02-14T06:15:14;1.55;;;1.17;;
40471;SDS011;26174;42.908;23.800;2024-02-14T06:17:40;0.85;;;0.85;;
40471;SDS011;26174;42.908;23.800;2024-02-14T06:20:05;0.57;;;0.50;;
40471;SDS011;26174;42.908;23.800;2024-02-14T06:22:32;0.30;;;0.30;;
40471;SDS011;26174;42.908;23.800;2024-02-14T06:24:59;0.30;;;0.30;;
40471;SDS011;26174;42.908;23.800;2024-02-14T06:27:29;1.27;;;0.70;;
40471;SDS011;26174;42.908;23.800;2024-02-14T06:29:56;2.60;;;1.13;;
40471;SDS011;26174;42.908;23.800;2024-02-14T06:32:22;0.45;;;0.45;;
40471;SDS011;26174;42.908;23.800;2024-02-14T06:34:47;0.52;;;0.50;;
40471;SDS011;26174;42.908;23.800;2024-02-14T06:37:13;0.20;;;0.20;;
40471;SDS011;26174;42.908;23.800;2024-02-14T06:39:38;0.57;;;0.57;;
40471;SDS011;26174;42.908;23.800;2024-02-14T06:42:04;0.22;;;0.22;;
40471;SDS011;26174;42.908;23.800;2024-02-14T06:44:30;0.15;;;0.15;;
40471;SDS011;26174;42.908;23.800;2024-02-14T06:46:55;0.93;;;0.52;;
40471;SDS011;26174;42.908;23.800;2024-02-14T06:49:21;1.33;;;1.23;;
40471;SDS011;26174;42.908;23.800;2024-02-14T06:51:46;0.85;;;0.65;;
40471;SDS011;26174;42.908;23.800;2024-02-14T06:54:12;0.55;;;0.55;;
40471;SDS011;26174;42.908;23.800;2024-02-14T06:56:38;0.30;;;0.30;;
40471;SDS011;26174;42.908;23.800;2024-02-14T06:59:03;0.15;;;0.15;;
40471;SDS011;26174;42.908;23.800;2024-02-14T07:01:29;0.40;;;0.40;;
40471;SDS011;26174;42.908;23.800;2024-02-14T07:03:55;0.35;;;0.35;;
40471;SDS011;26174;42.908;23.800;2024-02-14T07:06:21;4.68;;;1.17;;
40471;SDS011;26174;42.908;23.800;2024-02-14T07:08:47;0.40;;;0.40;;
40471;SDS011;26174;42.908;23.800;2024-02-14T07:11:14;0.75;;;0.40;;
40471;SDS011;26174;42.908;23.800;2024-02-14T07:13:40;0.22;;;0.22;;
40471;SDS011;26174;42.908;23.800;2024-02-14T07:16:06;1.25;;;1.15;;
40471;SDS011;26174;42.908;23.800;2024-02-14T07:18:33;1.27;;;0.80;;
40471;SDS011;26174;42.908;23.800;2024-02-14T07:20:59;0.40;;;0.40;;
40471;SDS011;26174;42.908;23.800;2024-02-14T07:23:24;1.27;;;1.00;;
40471;SDS011;26174;42.908;23.800;2024-02-14T07:25:51;0.38;;;0.38;;
40471;SDS011;26174;42.908;23.800;2024-02-14T07:28:17;0.52;;;0.35;;
40471;SDS011;26174;42.908;23.800;2024-02-14T07:30:43;1.33;;;0.88;;
40471;SDS011;26174;42.908;23.800;2024-02-14T07:33:09;0.30;;;0.20;;
40471;SDS011;26174;42.908;23.800;2024-02-14T07:35:36;0.82;;;0.60;;
40471;SDS011;26174;42.908;23.800;2024-02-14T07:38:02;1.55;;;1.13;;
40471;SDS011;26174;42.908;23.800;2024-02-14T07:40:28;0.52;;;0.52;;
40471;SDS011;26174;42.908;23.800;2024-02-14T07:42:56;0.28;;;0.20;;
40471;SDS011;26174;42.908;23.800;2024-02-14T07:45:22;0.20;;;0.20;;
40471;SDS011;26174;42.908;23.800;2024-02-14T07:47:51;0.70;;;0.70;;
40471;SDS011;26174;42.908;23.800;2024-02-14T07:50:16;1.20;;;0.32;;
40471;SDS011;26174;42.908;23.800;2024-02-14T07:52:42;0.38;;;0.30;;
40471;SDS011;26174;42.908;23.800;2024-02-14T07:55:11;0.52;;;0.52;;
40471;SDS011;26174;42.908;23.800;2024-02-14T07:57:38;1.15;;;1.10;;
40471;SDS011;26174;42.908;23.800;2024-02-14T08:00:05;0.75;;;0.50;;
40471;SDS011;26174;42.908;23.800;2024-02-14T08:02:33;2.40;;;0.98;;
40471;SDS011;26174;42.908;23.800;2024-02-14T08:04:59;0.90;;;0.65;;
40471;SDS011;26174;42.908;23.800;2024-02-14T08:07:25;0.82;;;0.68;;
40471;SDS011;26174;42.908;23.800;2024-02-14T08:09:50;0.57;;;0.57;;
40471;SDS011;26174;42.908;23.800;2024-02-14T08:12:16;1.08;;;0.73;;
40471;SDS011;26174;42.908;23.800;2024-02-14T08:14:42;0.75;;;0.40;;
40471;SDS011;26174;42.908;23.800;2024-02-14T08:17:07;2.40;;;0.85;;
40471;SDS011;26174;42.908;23.800;2024-02-14T08:19:33;0.40;;;0.40;;
40471;SDS011;26174;42.908;23.800;2024-02-14T08:22:00;1.55;;;0.50;;
40471;SDS011;26174;42.908;23.800;2024-02-14T08:24:26;3.40;;;1.85;;
40471;SDS011;26174;42.908;23.800;2024-02-14T08:26:52;0.20;;;0.20;;
40471;SDS011;26174;42.908;23.800;2024-02-14T08:29:19;1.33;;;0.35;;
40471;SDS011;26174;42.908;23.800;2024-02-14T08:31:44;0.90;;;0.30;;
40471;SDS011;26174;42.908;23.800;2024-02-14T08:34:10;0.38;;;0.38;;
40471;SDS011;26174;42.908;23.800;2024-02-14T08:36:35;0.08;;;0.08;;
40471;SDS011;26174;42.908;23.800;2024-02-14T08:39:09;0.75;;;0.47;;
40471;SDS011;26174;42.908;23.800;2024-02-14T08:41:38;0.57;;;0.57;;
40471;SDS011;26174;42.908;23.800;2024-02-14T08:44:04;0.43;;;0.40;;
40471;SDS011;26174;42.908;23.800;2024-02-14T08:46:30;0.35;;;0.30;;
40471;SDS011;26174;42.908;23.800;2024-02-14T08:48:56;0.35;;;0.35;;
40471;SDS011;26174;42.908;23.800;2024-02-14T08:51:21;0.60;;;0.50;;
40471;SDS011;26174;42.908;23.800;2024-02-14T08:53:47;1.65;;;1.55;;
40471;SDS011;26174;42.908;23.800;2024-02-14T08:56:13;0.50;;;0.50;;
40471;SDS011;26174;42.908;23.800;2024-02-14T08:58:39;0.35;;;0.35;;
40471;SDS011;26174;42.908;23.800;2024-02-14T09:01:04;0.70;;;0.70;;
40471;SDS011;26174;42.908;23.800;2024-02-14T09:03:30;2.17;;;1.17;;
40471;SDS011;26174;42.908;23.800;2024-02-14T09:05:59;0.77;;;0.77;;
40471;SDS011;26174;42.908;23.800;2024-02-14T09:08:25;0.73;;;0.20;;
40471;SDS011;26174;42.908;23.800;2024-02-14T09:10:51;0.25;;;0.25;;
40471;SDS011;26174;42.908;23.800;2024-02-14T09:13:16;0.15;;;0.15;;
40471;SDS011;26174;42.908;23.800;2024-02-14T09:15:42;5.75;;;0.73;;
40471;SDS011;26174;42.908;23.800;2024-02-14T09:18:08;1.17;;;0.47;;
40471;SDS011;26174;42.908;23.800;2024-02-14T09:20:34;0.73;;;0.60;;
40471;SDS011;26174;42.908;23.800;2024-02-14T09:22:59;1.45;;;0.95;;
40471;SDS011;26174;42.908;23.800;2024-02-14T09:25:25;1.17;;;0.95;;
40471;SDS011;26174;42.908;23.800;2024-02-14T09:27:51;2.53;;;0.95;;
40471;SDS011;26174;42.908;23.800;2024-02-14T09:30:17;1.05;;;0.50;;
40471;SDS011;26174;42.908;23.800;2024-02-14T09:32:45;0.77;;;0.70;;
40471;SDS011;26174;42.908;23.800;2024-02-14T09:35:12;0.47;;;0.47;;
40471;SDS011;26174;42.908;23.800;2024-02-14T09:37:38;0.15;;;0.15;;
40471;SDS011;26174;42.908;23.800;2024-02-14T09:40:05;0.65;;;0.55;;
40471;SDS011;26174;42.908;23.800;2024-02-14T09:42:37;0.93;;;0.47;;
40471;SDS011;26174;42.908;23.800;2024-02-14T09:45:07;0.17;;;0.17;;
40471;SDS011;26174;42.908;23.800;2024-02-14T09:47:33;0.38;;;0.38;;
40471;SDS011;26174;42.908;23.800;2024-02-14T09:49:59;0.60;;;0.60;;
40471;SDS011;26174;42.908;23.800;2024-02-14T09:52:28;0.55;;;0.55;;
40471;SDS011;26174;42.908;23.800;2024-02-14T09:54:53;0.88;;;0.73;;
40471;SDS011;26174;42.908;23.800;2024-02-14T09:57:19;1.48;;;1.00;;
40471;SDS011;26174;42.908;23.800;2024-02-14T09:59:46;0.20;;;0.20;;
40471;SDS011;26174;42.908;23.800;2024-02-14T10:02:12;0.68;;;0.63;;
40471;SDS011;26174;42.908;23.800;2024-02-14T10:04:37;1.27;;;0.63;;
40471;SDS011;26174;42.908;23.800;2024-02-14T10:07:04;1.63;;;1.33;;
40471;SDS011;26174;42.908;23.800;2024-02-14T10:09:30;0.98;;;0.60;;
40471;SDS011;26174;42.908;23.800;2024-02-14T10:11:56;4.88;;;1.15;;
40471;SDS011;26174;42.908;23.800;2024-02-14T10:14:23;0.32;;;0.32;;
40471;SDS011;26174;42.908;23.800;2024-02-14T10:17:07;0.20;;;0.20;;
40471;SDS011;26174;42.908;23.800;2024-02-14T10:19:35;6.95;;;2.95;;
40471;SDS011;26174;42.908;23.800;2024-02-14T10:22:01;0.10;;;0.10;;
40471;SDS011;26174;42.908;23.800;2024-02-14T10:24:30;2.03;;;0.43;;
40471;SDS011;26174;42.908;23.800;2024-02-14T10:26:58;0.60;;;0.60;;
40471;SDS011;26174;42.908;23.800;2024-02-14T10:29:24;5.50;;;2.50;;
40471;SDS011;26174;42.908;23.800;2024-02-14T10:31:53;0.77;;;0.77;;
40471;SDS011;26174;42.908;23.800;2024-02-14T10:34:19;1.40;;;1.05;;
40471;SDS011;26174;42.908;23.800;2024-02-14T10:36:49;1.08;;;1.00;;
40471;SDS011;26174;42.908;23.800;2024-02-14T10:39:17;1.33;;;0.98;;
40471;SDS011;26174;42.908;23.800;2024-02-14T10:41:44;3.00;;;1.60;;
40471;SDS011;26174;42.908;23.800;2024-02-14T10:44:10;2.55;;;1.33;;
40471;SDS011;26174;42.908;23.800;2024-02-14T10:46:45;0.63;;;0.63;;
40471;SDS011;26174;42.908;23.800;2024-02-14T10:49:11;1.65;;;0.95;;
40471;SDS011;26174;42.908;23.800;2024-02-14T10:51:38;7.10;;;1.50;;
40471;SDS011;26174;42.908;23.800;2024-02-14T10:54:09;4.75;;;1.27;;
40471;SDS011;26174;42.908;23.800;2024-02-14T10:56:40;1.35;;;0.70;;
40471;SDS011;26174;42.908;23.800;2024-02-14T10:59:09;0.40;;;0.40;;
40471;SDS011;26174;42.908;23.800;2024-02-14T11:01:36;1.25;;;0.98;;
40471;SDS011;26174;42.908;23.800;2024-02-14T11:04:02;0.90;;;0.82;;
40471;SDS011;26174;42.908;23.800;2024-02-14T11:06:30;0.30;;;0.30;;
40471;SDS011;26174;42.908;23.800;2024-02-14T11:09:02;2.78;;;1.42;;
40471;SDS011;26174;42.908;23.800;2024-02-14T11:11:33;0.85;;;0.70;;
40471;SDS011;26174;42.908;23.800;2024-02-14T11:13:59;1.80;;;1.23;;
40471;SDS011;26174;42.908;23.800;2024-02-14T11:16:28;1.42;;;0.98;;
40471;SDS011;26174;42.908;23.800;2024-02-14T11:19:05;1.13;;;1.02;;
40471;SDS011;26174;42.908;23.800;2024-02-14T11:21:44;1.17;;;1.08;;
40471;SDS011;26174;42.908;23.800;2024-02-14T11:27:02;2.30;;;1.35;;
40471;SDS011;26174;42.908;23.800;2024-02-14T11:29:28;0.35;;;0.35;;
40471;SDS011;26174;42.908;23.800;2024-02-14T11:31:59;0.93;;;0.80;;
40471;SDS011;26174;42.908;23.800;2024-02-14T11:34:25;1.80;;;0.63;;
40471;SDS011;26174;42.908;23.800;2024-02-14T11:36:51;1.08;;;0.75;;
40471;SDS011;26174;42.908;23.800;2024-02-14T11:42:39;8.05;;;3.03;;
40471;SDS011;26174;42.908;23.800;2024-02-14T11:45:05;3.72;;;1.85;;
40471;SDS011;26174;42.908;23.800;2024-02-14T11:47:31;0.70;;;0.70;;
40471;SDS011;26174;42.908;23.800;2024-02-14T11:49:57;0.45;;;0.43;;
40471;SDS011;26174;42.908;23.800;2024-02-14T11:52:23;1.58;;;1.15;;
40471;SDS011;26174;42.908;23.800;2024-02-14T11:54:49;0.80;;;0.73;;
40471;SDS011;26174;42.908;23.800;2024-02-14T11:57:18;1.73;;;1.10;;
40471;SDS011;26174;42.908;23.800;2024-02-14T11:59:48;0.67;;;0.63;;
40471;SDS011;26174;42.908;23.800;2024-02-14T12:02:15;0.65;;;0.65;;
40471;SDS011;26174;42.908;23.800;2024-02-14T12:04:41;4.18;;;0.98;;
40471;SDS011;26174;42.908;23.800;2024-02-14T12:07:07;0.63;;;0.63;;
40471;SDS011;26174;42.908;23.800;2024-02-14T12:09:33;0.40;;;0.40;;
40471;SDS011;26174;42.908;23.800;2024-02-14T12:11:58;1.60;;;1.13;;
40471;SDS011;26174;42.908;23.800;2024-02-14T12:14:25;1.23;;;1.13;;
40471;SDS011;26174;42.908;23.800;2024-02-14T12:16:56;7.93;;;2.42;;
40471;SDS011;26174;42.908;23.800;2024-02-14T12:19:25;1.38;;;0.75;;
40471;SDS011;26174;42.908;23.800;2024-02-14T12:21:52;1.30;;;0.77;;
40471;SDS011;26174;42.908;23.800;2024-02-14T12:24:17;1.00;;;0.73;;
40471;SDS011;26174;42.908;23.800;2024-02-14T12:30:08;2.03;;;1.05;;
40471;SDS011;26174;42.908;23.800;2024-02-14T12:32:35;2.60;;;1.58;;
40471;SDS011;26174;42.908;23.800;2024-02-14T12:35:01;8.60;;;4.00;;
40471;SDS011;26174;42.908;23.800;2024-02-14T12:37:26;3.42;;;2.20;;
40471;SDS011;26174;42.908;23.800;2024-02-14T12:39:52;5.63;;;4.63;;
40471;SDS011;26174;42.908;23.800;2024-02-14T12:42:19;5.75;;;1.92;;
40471;SDS011;26174;42.908;23.800;2024-02-14T12:44:50;0.75;;;0.32;;
40471;SDS011;26174;42.908;23.800;2024-02-14T12:47:22;0.28;;;0.25;;
40471;SDS011;26174;42.908;23.800;2024-02-14T12:49:48;0.52;;;0.43;;
40471;SDS011;26174;42.908;23.800;2024-02-14T12:52:14;0.98;;;0.88;;
40471;SDS011;26174;42.908;23.800;2024-02-14T12:54:40;1.33;;;1.23;;
40471;SDS011;26174;42.908;23.800;2024-02-14T12:57:06;0.95;;;0.93;;
40471;SDS011;26174;42.908;23.800;2024-02-14T12:59:32;0.85;;;0.38;;
40471;SDS011;26174;42.908;23.800;2024-02-14T13:01:57;0.50;;;0.50;;
40471;SDS011;26174;42.908;23.800;2024-02-14T13:04:23;0.98;;;0.88;;
40471;SDS011;26174;42.908;23.800;2024-02-14T13:06:49;0.28;;;0.28;;
40471;SDS011;26174;42.908;23.800;2024-02-14T13:09:15;0.93;;;0.65;;
40471;SDS011;26174;42.908;23.800;2024-02-14T13:11:41;0.50;;;0.50;;
40471;SDS011;26174;42.908;23.800;2024-02-14T13:14:09;3.55;;;1.55;;
40471;SDS011;26174;42.908;23.800;2024-02-14T13:16:35;1.05;;;0.50;;
40471;SDS011;26174;42.908;23.800;2024-02-14T13:19:00;0.82;;;0.43;;
40471;SDS011;26174;42.908;23.800;2024-02-14T13:21:26;0.15;;;0.15;;
40471;SDS011;26174;42.908;23.800;2024-02-14T13:23:52;0.40;;;0.40;;
40471;SDS011;26174;42.908;23.800;2024-02-14T13:26:17;1.08;;;0.88;;
40471;SDS011;26174;42.908;23.800;2024-02-14T13:28:43;1.25;;;0.95;;
40471;SDS011;26174;42.908;23.800;2024-02-14T13:31:08;0.60;;;0.60;;
40471;SDS011;26174;42.908;23.800;2024-02-14T13:33:35;1.42;;;1.15;;
40471;SDS011;26174;42.908;23.800;2024-02-14T13:36:01;1.77;;;1.58;;
40471;SDS011;26174;42.908;23.800;2024-02-14T13:38:26;1.35;;;0.95;;
40471;SDS011;26174;42.908;23.800;2024-02-14T13:40:54;0.68;;;0.68;;
40471;SDS011;26174;42.908;23.800;2024-02-14T13:43:19;1.00;;;0.40;;
40471;SDS011;26174;42.908;23.800;2024-02-14T13:45:45;1.30;;;1.20;;
40471;SDS011;26174;42.908;23.800;2024-02-14T13:48:13;1.60;;;1.50;;
40471;SDS011;26174;42.908;23.800;2024-02-14T13:50:39;1.60;;;1.25;;
40471;SDS011;26174;42.908;23.800;2024-02-14T13:53:06;1.45;;;0.75;;
40471;SDS011;26174;42.908;23.800;2024-02-14T13:55:32;1.60;;;1.45;;
40471;SDS011;26174;42.908;23.800;2024-02-14T13:57:57;1.20;;;0.82;;
40471;SDS011;26174;42.908;23.800;2024-02-14T14:00:23;3.80;;;1.02;;
40471;SDS011;26174;42.908;23.800;2024-02-14T14:02:49;6.10;;;1.52;;
40471;SDS011;26174;42.908;23.800;2024-02-14T14:05:14;2.35;;;0.98;;
40471;SDS011;26174;42.908;23.800;2024-02-14T14:07:40;1.10;;;0.93;;
40471;SDS011;26174;42.908;23.800;2024-02-14T14:10:06;3.30;;;1.05;;
40471;SDS011;26174;42.908;23.800;2024-02-14T14:12:35;7.47;;;2.05;;
40471;SDS011;26174;42.908;23.800;2024-02-14T14:15:02;5.13;;;1.45;;
40471;SDS011;26174;42.908;23.800;2024-02-14T14:17:28;1.27;;;1.17;;
40471;SDS011;26174;42.908;23.800;2024-02-14T14:19:53;4.18;;;2.10;;
40471;SDS011;26174;42.908;23.800;2024-02-14T14:22:19;1.48;;;1.38;;
40471;SDS011;26174;42.908;23.800;2024-02-14T14:24:46;4.78;;;1.77;;
40471;SDS011;26174;42.908;23.800;2024-02-14T14:27:12;6.68;;;3.50;;
40471;SDS011;26174;42.908;23.800;2024-02-14T14:29:42;35.85;;;16.15;;
40471;SDS011;26174;42.908;23.800;2024-02-14T14:32:09;18.23;;;8.57;;
40471;SDS011;26174;42.908;23.800;2024-02-14T14:34:35;18.92;;;8.00;;
40471;SDS011;26174;42.908;23.800;2024-02-14T14:37:00;15.52;;;8.93;;
40471;SDS011;26174;42.908;23.800;2024-02-14T14:39:26;20.08;;;10.80;;